LEPP/PNA METAR and TAF weather

Enter ICAO airport designator
Station Type Date Time Source
LEPP METAR 2021/05/14 12:30 UTC NOAA

LEPP 141230Z 36006KT 260V060 9999 SCT050 14/05 Q1018


Station Type Date Time Source
LEPP Decoded METAR 2021/05/14 12:30 UTC NOAA

Pamplona / Noain, Spain (LEPP) 42-46N 001-38W 453M
May 14, 2021 - 08:30 AM EDT / 2021.05.14 1230 UTC
Wind: from the N (360 degrees) at 7 MPH (6 KT) (direction variable):0
Visibility: greater than 7 mile(s):0
Sky conditions: partly cloudy
Temperature: 57 F (14 C)
Dew Point: 41 F (5 C)
Relative Humidity: 54%
Pressure (altimeter): 30.06 in. Hg (1018 hPa)
ob: LEPP 141230Z 36006KT 260V060 9999 SCT050 14/05 Q1018
cycle: 12

Station Type Date Time Source
LEPP TAF 2021/05/14 09:27 UTC NOAA

TAF LEPP 140800Z 1409/1509 34009KT 9999 FEW020 SCT035 TX17/1415Z TN07/1502Z PROB40
TEMPO 1409/1412 34015G25KT PROB30
TEMPO 1409/1412 3000 -RADZ BR BKN010

Example: see airport list